sensor_id;sensor_type;location;lat;lon;timestamp;P1;durP1;ratioP1;P2;durP2;ratioP2
50739;SDS011;36704;52.524;17.580;2022-11-20T00:00:56;33.63;;;15.35;;
50739;SDS011;36704;52.524;17.580;2022-11-20T00:04:25;33.75;;;16.67;;
50739;SDS011;36704;52.524;17.580;2022-11-20T00:07:34;32.80;;;16.13;;
50739;SDS011;36704;52.524;17.580;2022-11-20T00:11:17;35.30;;;16.48;;
50739;SDS011;36704;52.524;17.580;2022-11-20T00:14:14;33.50;;;15.48;;
50739;SDS011;36704;52.524;17.580;2022-11-20T00:17:14;29.90;;;15.35;;
50739;SDS011;36704;52.524;17.580;2022-11-20T00:20:29;37.55;;;15.57;;
50739;SDS011;36704;52.524;17.580;2022-11-20T00:23:54;32.35;;;14.35;;
50739;SDS011;36704;52.524;17.580;2022-11-20T00:27:01;32.17;;;15.18;;
50739;SDS011;36704;52.524;17.580;2022-11-20T00:29:53;33.70;;;15.60;;
50739;SDS011;36704;52.524;17.580;2022-11-20T00:32:52;30.60;;;15.05;;
50739;SDS011;36704;52.524;17.580;2022-11-20T00:36:11;35.22;;;14.68;;
50739;SDS011;36704;52.524;17.580;2022-11-20T00:39:16;33.10;;;14.90;;
50739;SDS011;36704;52.524;17.580;2022-11-20T00:42:32;30.55;;;15.15;;
50739;SDS011;36704;52.524;17.580;2022-11-20T00:45:49;29.52;;;15.27;;
50739;SDS011;36704;52.524;17.580;2022-11-20T00:48:58;34.42;;;15.82;;
50739;SDS011;36704;52.524;17.580;2022-11-20T00:55:27;28.73;;;14.07;;
50739;SDS011;36704;52.524;17.580;2022-11-20T00:59:15;21.92;;;12.40;;
50739;SDS011;36704;52.524;17.580;2022-11-20T01:02:37;25.83;;;12.77;;
50739;SDS011;36704;52.524;17.580;2022-11-20T01:06:09;27.55;;;12.90;;
50739;SDS011;36704;52.524;17.580;2022-11-20T01:09:48;24.73;;;11.80;;
50739;SDS011;36704;52.524;17.580;2022-11-20T01:13:07;22.67;;;10.68;;
50739;SDS011;36704;52.524;17.580;2022-11-20T01:16:49;25.80;;;10.75;;
50739;SDS011;36704;52.524;17.580;2022-11-20T01:20:06;24.92;;;11.18;;
50739;SDS011;36704;52.524;17.580;2022-11-20T01:23:03;20.55;;;10.57;;
50739;SDS011;36704;52.524;17.580;2022-11-20T01:26:52;22.27;;;11.57;;
50739;SDS011;36704;52.524;17.580;2022-11-20T01:29:50;20.33;;;10.40;;
50739;SDS011;36704;52.524;17.580;2022-11-20T01:32:55;22.77;;;11.00;;
50739;SDS011;36704;52.524;17.580;2022-11-20T01:36:38;22.95;;;11.20;;
50739;SDS011;36704;52.524;17.580;2022-11-20T01:40:01;21.95;;;10.85;;
50739;SDS011;36704;52.524;17.580;2022-11-20T01:43:17;19.88;;;10.13;;
50739;SDS011;36704;52.524;17.580;2022-11-20T01:53:52;21.38;;;10.05;;
50739;SDS011;36704;52.524;17.580;2022-11-20T01:56:54;23.42;;;9.70;;
50739;SDS011;36704;52.524;17.580;2022-11-20T02:00:33;21.08;;;11.20;;
50739;SDS011;36704;52.524;17.580;2022-11-20T02:03:47;23.10;;;10.90;;
50739;SDS011;36704;52.524;17.580;2022-11-20T02:14:21;20.65;;;9.70;;
50739;SDS011;36704;52.524;17.580;2022-11-20T02:17:43;22.52;;;10.73;;
50739;SDS011;36704;52.524;17.580;2022-11-20T02:20:41;21.08;;;11.55;;
50739;SDS011;36704;52.524;17.580;2022-11-20T02:27:49;21.70;;;10.73;;
50739;SDS011;36704;52.524;17.580;2022-11-20T02:31:01;23.05;;;11.60;;
50739;SDS011;36704;52.524;17.580;2022-11-20T02:34:10;22.23;;;11.65;;
50739;SDS011;36704;52.524;17.580;2022-11-20T02:37:05;22.10;;;10.77;;
50739;SDS011;36704;52.524;17.580;2022-11-20T02:40:30;22.98;;;11.15;;
50739;SDS011;36704;52.524;17.580;2022-11-20T02:43:23;24.70;;;12.27;;
50739;SDS011;36704;52.524;17.580;2022-11-20T02:46:35;22.67;;;11.15;;
50739;SDS011;36704;52.524;17.580;2022-11-20T02:49:57;22.00;;;9.98;;
50739;SDS011;36704;52.524;17.580;2022-11-20T02:53:18;24.25;;;11.25;;
50739;SDS011;36704;52.524;17.580;2022-11-20T02:56:32;24.15;;;11.40;;
50739;SDS011;36704;52.524;17.580;2022-11-20T02:59:27;26.52;;;12.63;;
50739;SDS011;36704;52.524;17.580;2022-11-20T03:02:24;25.05;;;11.60;;
50739;SDS011;36704;52.524;17.580;2022-11-20T03:05:44;25.08;;;11.52;;
50739;SDS011;36704;52.524;17.580;2022-11-20T03:09:09;24.42;;;11.15;;
50739;SDS011;36704;52.524;17.580;2022-11-20T03:12:33;21.83;;;10.93;;
50739;SDS011;36704;52.524;17.580;2022-11-20T03:15:29;23.30;;;11.27;;
50739;SDS011;36704;52.524;17.580;2022-11-20T03:18:23;22.70;;;12.30;;
50739;SDS011;36704;52.524;17.580;2022-11-20T03:21:34;24.95;;;10.90;;
50739;SDS011;36704;52.524;17.580;2022-11-20T03:24:34;26.35;;;12.68;;
50739;SDS011;36704;52.524;17.580;2022-11-20T03:27:44;28.10;;;12.57;;
50739;SDS011;36704;52.524;17.580;2022-11-20T03:31:38;23.38;;;11.35;;
50739;SDS011;36704;52.524;17.580;2022-11-20T03:34:46;26.08;;;13.68;;
50739;SDS011;36704;52.524;17.580;2022-11-20T03:37:47;30.48;;;14.43;;
50739;SDS011;36704;52.524;17.580;2022-11-20T03:41:08;29.52;;;13.73;;
50739;SDS011;36704;52.524;17.580;2022-11-20T03:44:07;27.15;;;13.60;;
50739;SDS011;36704;52.524;17.580;2022-11-20T03:47:31;24.60;;;12.45;;
50739;SDS011;36704;52.524;17.580;2022-11-20T03:50:23;31.05;;;13.45;;
50739;SDS011;36704;52.524;17.580;2022-11-20T03:53:23;27.52;;;13.00;;
50739;SDS011;36704;52.524;17.580;2022-11-20T03:56:27;29.67;;;14.10;;
50739;SDS011;36704;52.524;17.580;2022-11-20T03:59:24;36.13;;;15.25;;
50739;SDS011;36704;52.524;17.580;2022-11-20T04:02:48;34.22;;;15.38;;
50739;SDS011;36704;52.524;17.580;2022-11-20T04:06:29;42.50;;;19.95;;
50739;SDS011;36704;52.524;17.580;2022-11-20T04:10:00;34.42;;;16.88;;
50739;SDS011;36704;52.524;17.580;2022-11-20T04:13:01;48.80;;;23.23;;
50739;SDS011;36704;52.524;17.580;2022-11-20T04:16:21;155.52;;;47.47;;
50739;SDS011;36704;52.524;17.580;2022-11-20T04:19:24;50.60;;;21.02;;
50739;SDS011;36704;52.524;17.580;2022-11-20T04:22:24;43.58;;;18.38;;
50739;SDS011;36704;52.524;17.580;2022-11-20T04:25:49;51.85;;;22.90;;
50739;SDS011;36704;52.524;17.580;2022-11-20T04:28:55;40.85;;;18.35;;
50739;SDS011;36704;52.524;17.580;2022-11-20T04:31:59;32.13;;;16.17;;
50739;SDS011;36704;52.524;17.580;2022-11-20T04:35:06;33.67;;;16.27;;
50739;SDS011;36704;52.524;17.580;2022-11-20T04:38:11;38.10;;;18.88;;
50739;SDS011;36704;52.524;17.580;2022-11-20T04:41:20;36.28;;;16.10;;
50739;SDS011;36704;52.524;17.580;2022-11-20T04:44:28;30.40;;;15.45;;
50739;SDS011;36704;52.524;17.580;2022-11-20T04:47:31;37.60;;;17.02;;
50739;SDS011;36704;52.524;17.580;2022-11-20T04:50:51;35.65;;;16.85;;
50739;SDS011;36704;52.524;17.580;2022-11-20T04:53:58;37.85;;;17.58;;
50739;SDS011;36704;52.524;17.580;2022-11-20T04:57:20;32.35;;;15.80;;
50739;SDS011;36704;52.524;17.580;2022-11-20T05:00:20;35.15;;;15.20;;
50739;SDS011;36704;52.524;17.580;2022-11-20T05:03:13;34.92;;;16.33;;
50739;SDS011;36704;52.524;17.580;2022-11-20T05:06:14;36.30;;;16.63;;
50739;SDS011;36704;52.524;17.580;2022-11-20T05:09:04;33.53;;;15.82;;
50739;SDS011;36704;52.524;17.580;2022-11-20T05:15:47;35.85;;;16.10;;
50739;SDS011;36704;52.524;17.580;2022-11-20T05:18:50;34.25;;;16.63;;
50739;SDS011;36704;52.524;17.580;2022-11-20T05:21:59;41.25;;;16.80;;
50739;SDS011;36704;52.524;17.580;2022-11-20T05:25:00;38.17;;;16.75;;
50739;SDS011;36704;52.524;17.580;2022-11-20T05:28:28;36.42;;;16.05;;
50739;SDS011;36704;52.524;17.580;2022-11-20T05:32:36;44.92;;;17.75;;
50739;SDS011;36704;52.524;17.580;2022-11-20T05:35:49;33.92;;;16.27;;
50739;SDS011;36704;52.524;17.580;2022-11-20T05:39:11;34.83;;;17.23;;
50739;SDS011;36704;52.524;17.580;2022-11-20T05:42:25;35.15;;;16.13;;
50739;SDS011;36704;52.524;17.580;2022-11-20T05:45:54;38.17;;;17.30;;
50739;SDS011;36704;52.524;17.580;2022-11-20T05:49:53;32.33;;;16.05;;
50739;SDS011;36704;52.524;17.580;2022-11-20T05:53:19;33.80;;;15.88;;
50739;SDS011;36704;52.524;17.580;2022-11-20T05:56:26;33.97;;;16.27;;
50739;SDS011;36704;52.524;17.580;2022-11-20T06:00:13;34.88;;;16.05;;
50739;SDS011;36704;52.524;17.580;2022-11-20T06:03:23;33.22;;;16.10;;
50739;SDS011;36704;52.524;17.580;2022-11-20T06:06:20;34.53;;;16.55;;
50739;SDS011;36704;52.524;17.580;2022-11-20T06:09:52;36.28;;;17.67;;
50739;SDS011;36704;52.524;17.580;2022-11-20T06:13:02;38.22;;;17.55;;
50739;SDS011;36704;52.524;17.580;2022-11-20T06:19:10;35.97;;;16.88;;
50739;SDS011;36704;52.524;17.580;2022-11-20T06:26:05;40.20;;;17.88;;
50739;SDS011;36704;52.524;17.580;2022-11-20T06:29:51;38.35;;;20.10;;
50739;SDS011;36704;52.524;17.580;2022-11-20T06:33:27;39.53;;;17.90;;
50739;SDS011;36704;52.524;17.580;2022-11-20T06:36:56;39.55;;;17.90;;
50739;SDS011;36704;52.524;17.580;2022-11-20T06:40:08;37.92;;;18.83;;
50739;SDS011;36704;52.524;17.580;2022-11-20T06:42:56;34.72;;;16.80;;
50739;SDS011;36704;52.524;17.580;2022-11-20T06:45:57;37.63;;;17.88;;
50739;SDS011;36704;52.524;17.580;2022-11-20T06:48:55;46.30;;;19.90;;
50739;SDS011;36704;52.524;17.580;2022-11-20T06:52:17;46.38;;;20.55;;
50739;SDS011;36704;52.524;17.580;2022-11-20T06:55:08;50.90;;;20.90;;
50739;SDS011;36704;52.524;17.580;2022-11-20T06:58:18;51.00;;;21.42;;
50739;SDS011;36704;52.524;17.580;2022-11-20T07:01:06;46.95;;;20.77;;
50739;SDS011;36704;52.524;17.580;2022-11-20T07:03:55;45.67;;;22.42;;
50739;SDS011;36704;52.524;17.580;2022-11-20T07:06:46;49.40;;;21.50;;
50739;SDS011;36704;52.524;17.580;2022-11-20T07:10:31;47.28;;;20.75;;
50739;SDS011;36704;52.524;17.580;2022-11-20T07:13:22;88.82;;;33.47;;
50739;SDS011;36704;52.524;17.580;2022-11-20T07:23:52;44.03;;;21.27;;
50739;SDS011;36704;52.524;17.580;2022-11-20T07:26:39;46.30;;;21.23;;
50739;SDS011;36704;52.524;17.580;2022-11-20T07:29:26;59.78;;;23.60;;
50739;SDS011;36704;52.524;17.580;2022-11-20T07:35:41;48.03;;;23.08;;
50739;SDS011;36704;52.524;17.580;2022-11-20T07:38:54;48.38;;;22.70;;
50739;SDS011;36704;52.524;17.580;2022-11-20T07:41:48;54.00;;;26.33;;
50739;SDS011;36704;52.524;17.580;2022-11-20T07:44:47;53.60;;;23.45;;
50739;SDS011;36704;52.524;17.580;2022-11-20T07:47:36;48.55;;;23.88;;
50739;SDS011;36704;52.524;17.580;2022-11-20T07:50:27;53.60;;;21.50;;
50739;SDS011;36704;52.524;17.580;2022-11-20T07:54:08;43.67;;;20.60;;
50739;SDS011;36704;52.524;17.580;2022-11-20T07:57:01;38.17;;;18.70;;
50739;SDS011;36704;52.524;17.580;2022-11-20T08:00:12;55.25;;;24.45;;
50739;SDS011;36704;52.524;17.580;2022-11-20T08:03:03;74.93;;;29.50;;
50739;SDS011;36704;52.524;17.580;2022-11-20T08:05:50;49.67;;;21.60;;
50739;SDS011;36704;52.524;17.580;2022-11-20T08:08:37;61.63;;;25.77;;
50739;SDS011;36704;52.524;17.580;2022-11-20T08:11:27;68.50;;;29.55;;
50739;SDS011;36704;52.524;17.580;2022-11-20T08:14:32;62.22;;;26.38;;
50739;SDS011;36704;52.524;17.580;2022-11-20T08:17:19;43.20;;;21.73;;
50739;SDS011;36704;52.524;17.580;2022-11-20T08:20:06;52.45;;;23.52;;
50739;SDS011;36704;52.524;17.580;2022-11-20T08:22:52;44.13;;;21.50;;
50739;SDS011;36704;52.524;17.580;2022-11-20T08:25:38;45.63;;;19.88;;
50739;SDS011;36704;52.524;17.580;2022-11-20T08:28:24;48.95;;;21.80;;
50739;SDS011;36704;52.524;17.580;2022-11-20T08:31:10;39.08;;;19.70;;
50739;SDS011;36704;52.524;17.580;2022-11-20T08:33:57;42.72;;;20.42;;
50739;SDS011;36704;52.524;17.580;2022-11-20T08:36:44;49.10;;;22.73;;
50739;SDS011;36704;52.524;17.580;2022-11-20T08:39:30;50.03;;;24.63;;
50739;SDS011;36704;52.524;17.580;2022-11-20T08:42:17;56.95;;;25.30;;
50739;SDS011;36704;52.524;17.580;2022-11-20T08:45:04;60.55;;;29.65;;
50739;SDS011;36704;52.524;17.580;2022-11-20T08:47:52;65.07;;;30.70;;
50739;SDS011;36704;52.524;17.580;2022-11-20T08:50:38;45.42;;;23.30;;
50739;SDS011;36704;52.524;17.580;2022-11-20T08:53:25;50.90;;;26.77;;
50739;SDS011;36704;52.524;17.580;2022-11-20T08:56:12;50.83;;;26.58;;
50739;SDS011;36704;52.524;17.580;2022-11-20T08:58:59;57.17;;;25.38;;
50739;SDS011;36704;52.524;17.580;2022-11-20T09:02:05;70.22;;;32.78;;
50739;SDS011;36704;52.524;17.580;2022-11-20T09:04:51;81.55;;;45.33;;
50739;SDS011;36704;52.524;17.580;2022-11-20T09:07:39;71.97;;;38.35;;
50739;SDS011;36704;52.524;17.580;2022-11-20T09:10:26;69.40;;;41.28;;
50739;SDS011;36704;52.524;17.580;2022-11-20T09:13:13;51.80;;;25.92;;
50739;SDS011;36704;52.524;17.580;2022-11-20T09:16:02;54.28;;;29.30;;
50739;SDS011;36704;52.524;17.580;2022-11-20T09:18:51;46.63;;;24.60;;
50739;SDS011;36704;52.524;17.580;2022-11-20T09:21:58;67.35;;;33.67;;
50739;SDS011;36704;52.524;17.580;2022-11-20T09:24:45;56.33;;;29.27;;
50739;SDS011;36704;52.524;17.580;2022-11-20T09:27:31;53.88;;;26.23;;
50739;SDS011;36704;52.524;17.580;2022-11-20T09:30:18;87.63;;;40.40;;
50739;SDS011;36704;52.524;17.580;2022-11-20T09:33:05;55.17;;;25.98;;
50739;SDS011;36704;52.524;17.580;2022-11-20T09:35:51;88.57;;;41.17;;
50739;SDS011;36704;52.524;17.580;2022-11-20T09:38:38;58.85;;;32.17;;
50739;SDS011;36704;52.524;17.580;2022-11-20T09:41:36;160.90;;;72.65;;
50739;SDS011;36704;52.524;17.580;2022-11-20T09:57:03;66.00;;;29.85;;
50739;SDS011;36704;52.524;17.580;2022-11-20T09:59:56;53.20;;;25.63;;
50739;SDS011;36704;52.524;17.580;2022-11-20T10:02:45;78.65;;;30.35;;
50739;SDS011;36704;52.524;17.580;2022-11-20T10:05:44;69.85;;;32.08;;
50739;SDS011;36704;52.524;17.580;2022-11-20T10:15:05;47.67;;;22.58;;
50739;SDS011;36704;52.524;17.580;2022-11-20T10:18:11;47.55;;;25.15;;
50739;SDS011;36704;52.524;17.580;2022-11-20T10:21:29;71.67;;;33.43;;
50739;SDS011;36704;52.524;17.580;2022-11-20T10:27:21;74.10;;;34.70;;
50739;SDS011;36704;52.524;17.580;2022-11-20T10:30:27;58.53;;;29.20;;
50739;SDS011;36704;52.524;17.580;2022-11-20T10:33:17;74.57;;;33.78;;
50739;SDS011;36704;52.524;17.580;2022-11-20T10:36:16;58.30;;;28.95;;
50739;SDS011;36704;52.524;17.580;2022-11-20T10:39:13;56.50;;;25.83;;
50739;SDS011;36704;52.524;17.580;2022-11-20T10:42:15;44.03;;;18.67;;
50739;SDS011;36704;52.524;17.580;2022-11-20T10:45:15;73.40;;;31.52;;
50739;SDS011;36704;52.524;17.580;2022-11-20T11:05:39;135.38;;;53.03;;
50739;SDS011;36704;52.524;17.580;2022-11-20T11:08:32;64.57;;;32.00;;
50739;SDS011;36704;52.524;17.580;2022-11-20T11:11:23;81.07;;;40.15;;
50739;SDS011;36704;52.524;17.580;2022-11-20T11:14:11;104.32;;;46.20;;
50739;SDS011;36704;52.524;17.580;2022-11-20T11:16:58;121.40;;;58.47;;
50739;SDS011;36704;52.524;17.580;2022-11-20T11:19:45;194.85;;;74.65;;
50739;SDS011;36704;52.524;17.580;2022-11-20T11:22:31;91.00;;;39.25;;
50739;SDS011;36704;52.524;17.580;2022-11-20T11:31:03;112.18;;;47.65;;
50739;SDS011;36704;52.524;17.580;2022-11-20T11:33:50;94.95;;;38.75;;
50739;SDS011;36704;52.524;17.580;2022-11-20T11:36:36;104.35;;;43.47;;
50739;SDS011;36704;52.524;17.580;2022-11-20T11:39:22;96.30;;;37.13;;
50739;SDS011;36704;52.524;17.580;2022-11-20T11:42:16;54.85;;;26.30;;
50739;SDS011;36704;52.524;17.580;2022-11-20T11:45:05;70.93;;;30.65;;
50739;SDS011;36704;52.524;17.580;2022-11-20T11:47:52;115.25;;;44.30;;
50739;SDS011;36704;52.524;17.580;2022-11-20T11:50:47;107.82;;;43.28;;
50739;SDS011;36704;52.524;17.580;2022-11-20T11:53:34;79.22;;;34.83;;
50739;SDS011;36704;52.524;17.580;2022-11-20T11:56:29;88.93;;;41.50;;
50739;SDS011;36704;52.524;17.580;2022-11-20T11:59:41;94.07;;;38.22;;
50739;SDS011;36704;52.524;17.580;2022-11-20T12:02:40;92.32;;;38.83;;
50739;SDS011;36704;52.524;17.580;2022-11-20T12:05:40;125.47;;;48.47;;
50739;SDS011;36704;52.524;17.580;2022-11-20T12:08:36;120.90;;;51.30;;
50739;SDS011;36704;52.524;17.580;2022-11-20T12:11:46;99.90;;;39.80;;
50739;SDS011;36704;52.524;17.580;2022-11-20T12:14:37;101.57;;;42.83;;
50739;SDS011;36704;52.524;17.580;2022-11-20T12:17:25;104.38;;;43.65;;
50739;SDS011;36704;52.524;17.580;2022-11-20T12:20:11;95.28;;;38.10;;
50739;SDS011;36704;52.524;17.580;2022-11-20T12:23:14;99.68;;;39.72;;
50739;SDS011;36704;52.524;17.580;2022-11-20T12:26:13;100.45;;;34.65;;
50739;SDS011;36704;52.524;17.580;2022-11-20T12:32:58;105.45;;;38.03;;
50739;SDS011;36704;52.524;17.580;2022-11-20T12:39:06;105.32;;;42.75;;
50739;SDS011;36704;52.524;17.580;2022-11-20T12:42:30;77.45;;;34.28;;
50739;SDS011;36704;52.524;17.580;2022-11-20T12:46:42;108.35;;;44.60;;
50739;SDS011;36704;52.524;17.580;2022-11-20T12:55:33;75.97;;;30.25;;
50739;SDS011;36704;52.524;17.580;2022-11-20T12:58:46;77.25;;;32.42;;
50739;SDS011;36704;52.524;17.580;2022-11-20T13:08:11;56.20;;;25.95;;
50739;SDS011;36704;52.524;17.580;2022-11-20T13:11:37;56.13;;;25.90;;
50739;SDS011;36704;52.524;17.580;2022-11-20T13:18:17;116.88;;;45.40;;
50739;SDS011;36704;52.524;17.580;2022-11-20T13:21:21;78.07;;;32.97;;
50739;SDS011;36704;52.524;17.580;2022-11-20T13:24:21;71.57;;;32.72;;
50739;SDS011;36704;52.524;17.580;2022-11-20T13:27:19;97.32;;;37.45;;
50739;SDS011;36704;52.524;17.580;2022-11-20T13:30:17;76.43;;;32.97;;
50739;SDS011;36704;52.524;17.580;2022-11-20T13:33:20;94.93;;;41.10;;
50739;SDS011;36704;52.524;17.580;2022-11-20T13:36:22;116.18;;;47.40;;
50739;SDS011;36704;52.524;17.580;2022-11-20T13:39:10;65.97;;;32.65;;
50739;SDS011;36704;52.524;17.580;2022-11-20T13:42:20;83.88;;;38.05;;
50739;SDS011;36704;52.524;17.580;2022-11-20T13:45:23;108.03;;;42.55;;
50739;SDS011;36704;52.524;17.580;2022-11-20T13:48:18;110.45;;;47.42;;
50739;SDS011;36704;52.524;17.580;2022-11-20T14:00:47;92.55;;;39.65;;
50739;SDS011;36704;52.524;17.580;2022-11-20T14:03:37;97.93;;;42.55;;
50739;SDS011;36704;52.524;17.580;2022-11-20T14:06:46;76.47;;;31.52;;
50739;SDS011;36704;52.524;17.580;2022-11-20T14:09:33;95.47;;;38.63;;
50739;SDS011;36704;52.524;17.580;2022-11-20T14:12:21;76.15;;;33.38;;
50739;SDS011;36704;52.524;17.580;2022-11-20T14:15:23;74.60;;;32.47;;
50739;SDS011;36704;52.524;17.580;2022-11-20T14:18:18;99.50;;;36.95;;
50739;SDS011;36704;52.524;17.580;2022-11-20T14:21:08;63.75;;;29.95;;
50739;SDS011;36704;52.524;17.580;2022-11-20T14:24:05;71.15;;;32.30;;
50739;SDS011;36704;52.524;17.580;2022-11-20T14:26:53;85.80;;;40.55;;
50739;SDS011;36704;52.524;17.580;2022-11-20T14:29:40;78.13;;;35.28;;
50739;SDS011;36704;52.524;17.580;2022-11-20T14:32:28;61.35;;;30.92;;
50739;SDS011;36704;52.524;17.580;2022-11-20T14:35:26;115.05;;;45.40;;
50739;SDS011;36704;52.524;17.580;2022-11-20T14:38:15;81.15;;;37.05;;
50739;SDS011;36704;52.524;17.580;2022-11-20T14:41:17;83.95;;;38.42;;
50739;SDS011;36704;52.524;17.580;2022-11-20T14:44:06;89.82;;;38.55;;
50739;SDS011;36704;52.524;17.580;2022-11-20T14:46:54;75.00;;;34.22;;
50739;SDS011;36704;52.524;17.580;2022-11-20T14:49:41;71.95;;;33.25;;
50739;SDS011;36704;52.524;17.580;2022-11-20T14:52:28;83.57;;;37.53;;
50739;SDS011;36704;52.524;17.580;2022-11-20T14:58:43;64.38;;;32.63;;
50739;SDS011;36704;52.524;17.580;2022-11-20T15:01:43;65.60;;;32.47;;
50739;SDS011;36704;52.524;17.580;2022-11-20T15:04:48;64.25;;;30.98;;
50739;SDS011;36704;52.524;17.580;2022-11-20T15:07:36;76.35;;;32.20;;
50739;SDS011;36704;52.524;17.580;2022-11-20T15:10:26;103.33;;;39.73;;
50739;SDS011;36704;52.524;17.580;2022-11-20T15:16:19;170.50;;;68.97;;
50739;SDS011;36704;52.524;17.580;2022-11-20T15:19:10;147.77;;;57.97;;
50739;SDS011;36704;52.524;17.580;2022-11-20T15:22:11;108.25;;;44.65;;
50739;SDS011;36704;52.524;17.580;2022-11-20T15:25:05;92.55;;;39.10;;
50739;SDS011;36704;52.524;17.580;2022-11-20T15:27:57;92.68;;;35.65;;
50739;SDS011;36704;52.524;17.580;2022-11-20T15:30:44;100.00;;;41.45;;
50739;SDS011;36704;52.524;17.580;2022-11-20T15:33:32;165.57;;;59.10;;
50739;SDS011;36704;52.524;17.580;2022-11-20T15:36:19;161.80;;;57.45;;
50739;SDS011;36704;52.524;17.580;2022-11-20T15:39:06;142.02;;;57.95;;
50739;SDS011;36704;52.524;17.580;2022-11-20T15:41:54;126.50;;;50.38;;
50739;SDS011;36704;52.524;17.580;2022-11-20T15:44:40;128.43;;;52.85;;
50739;SDS011;36704;52.524;17.580;2022-11-20T15:47:31;138.23;;;61.38;;
50739;SDS011;36704;52.524;17.580;2022-11-20T15:50:20;142.50;;;57.20;;
50739;SDS011;36704;52.524;17.580;2022-11-20T15:53:09;106.45;;;47.53;;
50739;SDS011;36704;52.524;17.580;2022-11-20T15:55:56;161.98;;;62.53;;
50739;SDS011;36704;52.524;17.580;2022-11-20T15:58:43;264.58;;;92.53;;
50739;SDS011;36704;52.524;17.580;2022-11-20T16:01:29;206.80;;;69.95;;
50739;SDS011;36704;52.524;17.580;2022-11-20T16:04:19;153.98;;;55.33;;
50739;SDS011;36704;52.524;17.580;2022-11-20T16:07:05;137.30;;;53.08;;
50739;SDS011;36704;52.524;17.580;2022-11-20T16:09:52;165.15;;;60.05;;
50739;SDS011;36704;52.524;17.580;2022-11-20T16:12:38;135.95;;;50.58;;
50739;SDS011;36704;52.524;17.580;2022-11-20T16:15:45;134.15;;;51.28;;
50739;SDS011;36704;52.524;17.580;2022-11-20T16:18:38;167.38;;;61.88;;
50739;SDS011;36704;52.524;17.580;2022-11-20T16:21:25;178.45;;;62.85;;
50739;SDS011;36704;52.524;17.580;2022-11-20T16:24:18;149.27;;;55.38;;
50739;SDS011;36704;52.524;17.580;2022-11-20T16:27:07;159.60;;;58.80;;
50739;SDS011;36704;52.524;17.580;2022-11-20T16:29:54;203.05;;;73.78;;
50739;SDS011;36704;52.524;17.580;2022-11-20T16:32:41;214.60;;;81.30;;
50739;SDS011;36704;52.524;17.580;2022-11-20T16:35:29;286.63;;;110.30;;
50739;SDS011;36704;52.524;17.580;2022-11-20T16:38:16;317.80;;;116.40;;
50739;SDS011;36704;52.524;17.580;2022-11-20T16:41:10;290.90;;;108.53;;
50739;SDS011;36704;52.524;17.580;2022-11-20T16:44:00;281.58;;;109.80;;
50739;SDS011;36704;52.524;17.580;2022-11-20T16:46:48;278.13;;;105.00;;
50739;SDS011;36704;52.524;17.580;2022-11-20T16:49:35;328.92;;;120.57;;
50739;SDS011;36704;52.524;17.580;2022-11-20T16:52:21;315.65;;;109.05;;
50739;SDS011;36704;52.524;17.580;2022-11-20T16:55:08;301.13;;;109.45;;
50739;SDS011;36704;52.524;17.580;2022-11-20T16:57:56;258.25;;;97.00;;
50739;SDS011;36704;52.524;17.580;2022-11-20T17:00:42;271.13;;;106.47;;
50739;SDS011;36704;52.524;17.580;2022-11-20T17:03:36;254.25;;;104.53;;
50739;SDS011;36704;52.524;17.580;2022-11-20T17:06:24;253.02;;;97.53;;
50739;SDS011;36704;52.524;17.580;2022-11-20T17:09:12;254.02;;;95.75;;
50739;SDS011;36704;52.524;17.580;2022-11-20T17:11:59;242.50;;;92.20;;
50739;SDS011;36704;52.524;17.580;2022-11-20T17:14:46;262.50;;;96.63;;
50739;SDS011;36704;52.524;17.580;2022-11-20T17:17:32;233.43;;;88.35;;
50739;SDS011;36704;52.524;17.580;2022-11-20T17:20:19;315.92;;;108.90;;
50739;SDS011;36704;52.524;17.580;2022-11-20T17:23:08;404.75;;;141.10;;
50739;SDS011;36704;52.524;17.580;2022-11-20T17:26:03;364.60;;;138.48;;
50739;SDS011;36704;52.524;17.580;2022-11-20T17:29:01;271.73;;;103.10;;
50739;SDS011;36704;52.524;17.580;2022-11-20T17:31:52;252.07;;;93.93;;
50739;SDS011;36704;52.524;17.580;2022-11-20T17:34:47;220.98;;;86.18;;
50739;SDS011;36704;52.524;17.580;2022-11-20T17:37:33;205.93;;;75.15;;
50739;SDS011;36704;52.524;17.580;2022-11-20T17:40:23;230.20;;;84.68;;
50739;SDS011;36704;52.524;17.580;2022-11-20T17:43:12;175.43;;;67.05;;
50739;SDS011;36704;52.524;17.580;2022-11-20T17:46:09;186.15;;;70.50;;
50739;SDS011;36704;52.524;17.580;2022-11-20T17:49:11;197.95;;;78.82;;
50739;SDS011;36704;52.524;17.580;2022-11-20T17:52:09;167.13;;;63.00;;
50739;SDS011;36704;52.524;17.580;2022-11-20T17:54:55;162.93;;;64.13;;
50739;SDS011;36704;52.524;17.580;2022-11-20T17:57:44;363.70;;;160.93;;
50739;SDS011;36704;52.524;17.580;2022-11-20T18:00:43;168.65;;;72.97;;
50739;SDS011;36704;52.524;17.580;2022-11-20T18:03:31;156.93;;;68.20;;
50739;SDS011;36704;52.524;17.580;2022-11-20T18:06:22;174.88;;;71.70;;
50739;SDS011;36704;52.524;17.580;2022-11-20T18:09:10;176.35;;;66.95;;
50739;SDS011;36704;52.524;17.580;2022-11-20T18:11:57;217.73;;;78.68;;
50739;SDS011;36704;52.524;17.580;2022-11-20T18:14:43;165.18;;;60.58;;
50739;SDS011;36704;52.524;17.580;2022-11-20T18:17:30;179.82;;;71.25;;
50739;SDS011;36704;52.524;17.580;2022-11-20T18:20:23;161.27;;;71.07;;
50739;SDS011;36704;52.524;17.580;2022-11-20T18:23:17;128.63;;;53.35;;
50739;SDS011;36704;52.524;17.580;2022-11-20T18:26:04;124.82;;;53.83;;
50739;SDS011;36704;52.524;17.580;2022-11-20T18:28:53;145.20;;;58.70;;
50739;SDS011;36704;52.524;17.580;2022-11-20T18:31:41;136.80;;;56.38;;
50739;SDS011;36704;52.524;17.580;2022-11-20T18:34:27;135.23;;;53.38;;
50739;SDS011;36704;52.524;17.580;2022-11-20T18:37:14;138.15;;;53.90;;
50739;SDS011;36704;52.524;17.580;2022-11-20T18:40:01;147.90;;;58.88;;
50739;SDS011;36704;52.524;17.580;2022-11-20T18:42:48;132.48;;;57.33;;
50739;SDS011;36704;52.524;17.580;2022-11-20T18:46:00;106.38;;;44.58;;
50739;SDS011;36704;52.524;17.580;2022-11-20T18:48:51;110.78;;;45.90;;
50739;SDS011;36704;52.524;17.580;2022-11-20T18:51:41;90.97;;;38.55;;
50739;SDS011;36704;52.524;17.580;2022-11-20T18:54:31;106.82;;;43.35;;
50739;SDS011;36704;52.524;17.580;2022-11-20T18:57:17;102.55;;;43.25;;
50739;SDS011;36704;52.524;17.580;2022-11-20T19:02:55;100.72;;;41.13;;
50739;SDS011;36704;52.524;17.580;2022-11-20T19:05:45;107.53;;;45.72;;
50739;SDS011;36704;52.524;17.580;2022-11-20T19:08:38;127.47;;;54.05;;
50739;SDS011;36704;52.524;17.580;2022-11-20T19:11:25;147.75;;;55.03;;
50739;SDS011;36704;52.524;17.580;2022-11-20T19:14:15;151.98;;;58.47;;
50739;SDS011;36704;52.524;17.580;2022-11-20T19:17:02;120.32;;;46.70;;
50739;SDS011;36704;52.524;17.580;2022-11-20T19:19:58;85.65;;;36.10;;
50739;SDS011;36704;52.524;17.580;2022-11-20T19:22:49;125.85;;;49.30;;